sensor_id;sensor_type;location;lat;lon;timestamp;P1;durP1;ratioP1;P2;durP2;ratioP2
54787;SDS011;59598;48.112;16.280;2023-12-20T00:02:23;43.15;;;20.88;;
54787;SDS011;59598;48.112;16.280;2023-12-20T00:04:55;33.15;;;20.05;;
54787;SDS011;59598;48.112;16.280;2023-12-20T00:07:26;38.35;;;22.05;;
54787;SDS011;59598;48.112;16.280;2023-12-20T00:09:57;40.72;;;20.88;;
54787;SDS011;59598;48.112;16.280;2023-12-20T00:12:28;37.50;;;20.63;;
54787;SDS011;59598;48.112;16.280;2023-12-20T00:14:59;39.50;;;20.27;;
54787;SDS011;59598;48.112;16.280;2023-12-20T00:17:36;36.67;;;19.20;;
54787;SDS011;59598;48.112;16.280;2023-12-20T00:20:07;39.97;;;20.30;;
54787;SDS011;59598;48.112;16.280;2023-12-20T00:22:41;39.92;;;20.40;;
54787;SDS011;59598;48.112;16.280;2023-12-20T00:25:15;38.28;;;21.17;;
54787;SDS011;59598;48.112;16.280;2023-12-20T00:27:48;39.78;;;20.77;;
54787;SDS011;59598;48.112;16.280;2023-12-20T00:30:24;40.28;;;21.00;;
54787;SDS011;59598;48.112;16.280;2023-12-20T00:35:29;37.05;;;20.98;;
54787;SDS011;59598;48.112;16.280;2023-12-20T00:38:01;37.72;;;22.02;;
54787;SDS011;59598;48.112;16.280;2023-12-20T00:40:32;36.40;;;19.90;;
54787;SDS011;59598;48.112;16.280;2023-12-20T00:43:06;37.08;;;21.35;;
54787;SDS011;59598;48.112;16.280;2023-12-20T00:45:37;32.40;;;19.17;;
54787;SDS011;59598;48.112;16.280;2023-12-20T00:48:10;39.38;;;21.85;;
54787;SDS011;59598;48.112;16.280;2023-12-20T00:50:42;38.20;;;20.65;;
54787;SDS011;59598;48.112;16.280;2023-12-20T00:53:15;38.63;;;21.70;;
54787;SDS011;59598;48.112;16.280;2023-12-20T00:55:49;35.25;;;20.63;;
54787;SDS011;59598;48.112;16.280;2023-12-20T00:58:23;38.45;;;19.95;;
54787;SDS011;59598;48.112;16.280;2023-12-20T01:00:55;38.60;;;19.92;;
54787;SDS011;59598;48.112;16.280;2023-12-20T01:03:29;38.53;;;20.42;;
54787;SDS011;59598;48.112;16.280;2023-12-20T01:06:03;36.47;;;20.83;;
54787;SDS011;59598;48.112;16.280;2023-12-20T01:08:38;35.83;;;18.88;;
54787;SDS011;59598;48.112;16.280;2023-12-20T01:11:09;35.90;;;18.70;;
54787;SDS011;59598;48.112;16.280;2023-12-20T01:13:40;35.72;;;19.70;;
54787;SDS011;59598;48.112;16.280;2023-12-20T01:16:14;41.75;;;21.50;;
54787;SDS011;59598;48.112;16.280;2023-12-20T01:18:45;38.45;;;21.80;;
54787;SDS011;59598;48.112;16.280;2023-12-20T01:21:16;36.83;;;19.70;;
54787;SDS011;59598;48.112;16.280;2023-12-20T01:23:47;37.15;;;18.75;;
54787;SDS011;59598;48.112;16.280;2023-12-20T01:26:26;33.85;;;18.60;;
54787;SDS011;59598;48.112;16.280;2023-12-20T01:28:58;34.63;;;18.35;;
54787;SDS011;59598;48.112;16.280;2023-12-20T01:31:29;37.70;;;17.67;;
54787;SDS011;59598;48.112;16.280;2023-12-20T01:34:00;36.92;;;18.92;;
54787;SDS011;59598;48.112;16.280;2023-12-20T01:36:31;35.75;;;19.48;;
54787;SDS011;59598;48.112;16.280;2023-12-20T01:39:05;29.35;;;17.50;;
54787;SDS011;59598;48.112;16.280;2023-12-20T01:41:38;34.75;;;16.60;;
54787;SDS011;59598;48.112;16.280;2023-12-20T01:46:44;33.80;;;19.42;;
54787;SDS011;59598;48.112;16.280;2023-12-20T01:49:16;33.05;;;18.70;;
54787;SDS011;59598;48.112;16.280;2023-12-20T01:51:51;34.22;;;17.67;;
54787;SDS011;59598;48.112;16.280;2023-12-20T01:54:26;34.95;;;18.83;;
54787;SDS011;59598;48.112;16.280;2023-12-20T01:56:57;39.28;;;17.67;;
54787;SDS011;59598;48.112;16.280;2023-12-20T01:59:32;32.30;;;18.45;;
54787;SDS011;59598;48.112;16.280;2023-12-20T02:02:09;30.17;;;16.55;;
54787;SDS011;59598;48.112;16.280;2023-12-20T02:04:43;31.02;;;17.77;;
54787;SDS011;59598;48.112;16.280;2023-12-20T02:07:14;34.90;;;17.30;;
54787;SDS011;59598;48.112;16.280;2023-12-20T02:09:46;33.58;;;16.75;;
54787;SDS011;59598;48.112;16.280;2023-12-20T02:12:17;25.90;;;15.90;;
54787;SDS011;59598;48.112;16.280;2023-12-20T02:14:49;24.75;;;15.25;;
54787;SDS011;59598;48.112;16.280;2023-12-20T02:17:26;25.33;;;13.82;;
54787;SDS011;59598;48.112;16.280;2023-12-20T02:20:01;30.23;;;15.90;;
54787;SDS011;59598;48.112;16.280;2023-12-20T02:22:36;25.70;;;14.90;;
54787;SDS011;59598;48.112;16.280;2023-12-20T02:25:07;28.70;;;16.42;;
54787;SDS011;59598;48.112;16.280;2023-12-20T02:27:44;28.95;;;15.00;;
54787;SDS011;59598;48.112;16.280;2023-12-20T02:30:20;25.60;;;15.10;;
54787;SDS011;59598;48.112;16.280;2023-12-20T02:32:54;28.35;;;16.08;;
54787;SDS011;59598;48.112;16.280;2023-12-20T02:35:27;27.40;;;14.85;;
54787;SDS011;59598;48.112;16.280;2023-12-20T02:38:00;27.15;;;15.85;;
54787;SDS011;59598;48.112;16.280;2023-12-20T02:40:35;28.85;;;16.13;;
54787;SDS011;59598;48.112;16.280;2023-12-20T02:43:06;28.60;;;15.00;;
54787;SDS011;59598;48.112;16.280;2023-12-20T02:45:40;26.50;;;15.48;;
54787;SDS011;59598;48.112;16.280;2023-12-20T02:48:14;29.10;;;16.83;;
54787;SDS011;59598;48.112;16.280;2023-12-20T02:50:45;34.80;;;16.88;;
54787;SDS011;59598;48.112;16.280;2023-12-20T02:53:18;29.00;;;17.33;;
54787;SDS011;59598;48.112;16.280;2023-12-20T02:55:54;31.15;;;16.98;;
54787;SDS011;59598;48.112;16.280;2023-12-20T02:58:28;33.13;;;16.67;;
54787;SDS011;59598;48.112;16.280;2023-12-20T03:01:02;29.95;;;15.85;;
54787;SDS011;59598;48.112;16.280;2023-12-20T03:03:33;32.78;;;17.35;;
54787;SDS011;59598;48.112;16.280;2023-12-20T03:06:04;31.30;;;17.50;;
54787;SDS011;59598;48.112;16.280;2023-12-20T03:08:36;28.08;;;15.95;;
54787;SDS011;59598;48.112;16.280;2023-12-20T03:11:07;28.48;;;16.52;;
54787;SDS011;59598;48.112;16.280;2023-12-20T03:13:42;30.58;;;17.42;;
54787;SDS011;59598;48.112;16.280;2023-12-20T03:16:13;32.50;;;16.85;;
54787;SDS011;59598;48.112;16.280;2023-12-20T03:18:46;27.53;;;16.73;;
54787;SDS011;59598;48.112;16.280;2023-12-20T03:21:20;30.77;;;17.00;;
54787;SDS011;59598;48.112;16.280;2023-12-20T03:23:53;28.85;;;17.27;;
54787;SDS011;59598;48.112;16.280;2023-12-20T03:26:24;30.53;;;17.67;;
54787;SDS011;59598;48.112;16.280;2023-12-20T03:28:58;30.60;;;17.10;;
54787;SDS011;59598;48.112;16.280;2023-12-20T03:31:35;27.40;;;15.88;;
54787;SDS011;59598;48.112;16.280;2023-12-20T03:34:07;29.77;;;16.83;;
54787;SDS011;59598;48.112;16.280;2023-12-20T03:36:38;26.83;;;15.73;;
54787;SDS011;59598;48.112;16.280;2023-12-20T03:39:09;31.40;;;16.42;;
54787;SDS011;59598;48.112;16.280;2023-12-20T03:41:42;25.25;;;14.80;;
54787;SDS011;59598;48.112;16.280;2023-12-20T03:44:13;27.38;;;15.38;;
54787;SDS011;59598;48.112;16.280;2023-12-20T03:46:44;26.13;;;15.63;;
54787;SDS011;59598;48.112;16.280;2023-12-20T03:49:19;26.67;;;14.77;;
54787;SDS011;59598;48.112;16.280;2023-12-20T03:51:56;29.02;;;17.42;;
54787;SDS011;59598;48.112;16.280;2023-12-20T03:54:30;32.65;;;17.88;;
54787;SDS011;59598;48.112;16.280;2023-12-20T03:57:04;27.45;;;16.65;;
54787;SDS011;59598;48.112;16.280;2023-12-20T03:59:38;28.43;;;16.97;;
54787;SDS011;59598;48.112;16.280;2023-12-20T04:02:12;28.63;;;15.52;;
54787;SDS011;59598;48.112;16.280;2023-12-20T04:04:46;26.63;;;16.03;;
54787;SDS011;59598;48.112;16.280;2023-12-20T04:07:19;30.65;;;15.73;;
54787;SDS011;59598;48.112;16.280;2023-12-20T04:09:52;29.98;;;15.82;;
54787;SDS011;59598;48.112;16.280;2023-12-20T04:12:29;26.13;;;15.60;;
54787;SDS011;59598;48.112;16.280;2023-12-20T04:15:03;31.52;;;17.13;;
54787;SDS011;59598;48.112;16.280;2023-12-20T04:17:39;31.65;;;16.83;;
54787;SDS011;59598;48.112;16.280;2023-12-20T04:20:10;28.47;;;15.83;;
54787;SDS011;59598;48.112;16.280;2023-12-20T04:22:49;32.43;;;15.73;;
54787;SDS011;59598;48.112;16.280;2023-12-20T04:25:23;26.60;;;15.52;;
54787;SDS011;59598;48.112;16.280;2023-12-20T04:27:58;28.40;;;15.55;;
54787;SDS011;59598;48.112;16.280;2023-12-20T04:30:32;26.07;;;15.43;;
54787;SDS011;59598;48.112;16.280;2023-12-20T04:33:03;29.00;;;16.55;;
54787;SDS011;59598;48.112;16.280;2023-12-20T04:35:38;31.17;;;15.97;;
54787;SDS011;59598;48.112;16.280;2023-12-20T04:38:13;29.60;;;17.25;;
54787;SDS011;59598;48.112;16.280;2023-12-20T04:40:49;37.17;;;19.67;;
54787;SDS011;59598;48.112;16.280;2023-12-20T04:43:21;26.15;;;13.52;;
54787;SDS011;59598;48.112;16.280;2023-12-20T04:45:54;29.77;;;16.52;;
54787;SDS011;59598;48.112;16.280;2023-12-20T04:48:28;29.95;;;18.08;;
54787;SDS011;59598;48.112;16.280;2023-12-20T04:51:09;31.10;;;16.95;;
54787;SDS011;59598;48.112;16.280;2023-12-20T04:53:43;30.83;;;14.90;;
54787;SDS011;59598;48.112;16.280;2023-12-20T04:56:14;25.42;;;15.73;;
54787;SDS011;59598;48.112;16.280;2023-12-20T04:58:49;31.67;;;15.10;;
54787;SDS011;59598;48.112;16.280;2023-12-20T05:01:20;25.70;;;14.20;;
54787;SDS011;59598;48.112;16.280;2023-12-20T05:03:53;29.65;;;15.38;;
54787;SDS011;59598;48.112;16.280;2023-12-20T05:06:27;22.33;;;13.18;;
54787;SDS011;59598;48.112;16.280;2023-12-20T05:09:03;27.10;;;14.48;;
54787;SDS011;59598;48.112;16.280;2023-12-20T05:11:36;29.60;;;14.52;;
54787;SDS011;59598;48.112;16.280;2023-12-20T05:14:07;23.80;;;13.98;;
54787;SDS011;59598;48.112;16.280;2023-12-20T05:16:42;24.88;;;15.38;;
54787;SDS011;59598;48.112;16.280;2023-12-20T05:19:14;24.80;;;13.23;;
54787;SDS011;59598;48.112;16.280;2023-12-20T05:21:47;20.90;;;13.18;;
54787;SDS011;59598;48.112;16.280;2023-12-20T05:24:21;20.55;;;11.98;;
54787;SDS011;59598;48.112;16.280;2023-12-20T05:27:02;18.25;;;11.57;;
54787;SDS011;59598;48.112;16.280;2023-12-20T05:29:37;18.80;;;11.15;;
54787;SDS011;59598;48.112;16.280;2023-12-20T05:32:11;20.20;;;10.98;;
54787;SDS011;59598;48.112;16.280;2023-12-20T05:34:46;6.68;;;4.43;;
54787;SDS011;59598;48.112;16.280;2023-12-20T05:37:25;3.60;;;2.33;;
54787;SDS011;59598;48.112;16.280;2023-12-20T05:39:57;4.30;;;2.85;;
54787;SDS011;59598;48.112;16.280;2023-12-20T05:42:28;4.55;;;2.03;;
54787;SDS011;59598;48.112;16.280;2023-12-20T05:45:00;2.65;;;2.30;;
54787;SDS011;59598;48.112;16.280;2023-12-20T05:47:40;3.38;;;2.55;;
54787;SDS011;59598;48.112;16.280;2023-12-20T05:50:14;2.40;;;2.10;;
54787;SDS011;59598;48.112;16.280;2023-12-20T05:52:51;3.65;;;2.20;;
54787;SDS011;59598;48.112;16.280;2023-12-20T05:55:26;6.53;;;2.17;;
54787;SDS011;59598;48.112;16.280;2023-12-20T05:57:58;3.42;;;2.17;;
54787;SDS011;59598;48.112;16.280;2023-12-20T06:00:32;4.30;;;2.33;;
54787;SDS011;59598;48.112;16.280;2023-12-20T06:03:07;3.65;;;1.65;;
54787;SDS011;59598;48.112;16.280;2023-12-20T06:05:42;2.58;;;1.85;;
54787;SDS011;59598;48.112;16.280;2023-12-20T06:08:16;3.60;;;2.00;;
54787;SDS011;59598;48.112;16.280;2023-12-20T06:10:50;2.80;;;2.13;;
54787;SDS011;59598;48.112;16.280;2023-12-20T06:13:22;2.47;;;1.70;;
54787;SDS011;59598;48.112;16.280;2023-12-20T06:15:56;2.80;;;1.67;;
54787;SDS011;59598;48.112;16.280;2023-12-20T06:18:33;1.60;;;1.25;;
54787;SDS011;59598;48.112;16.280;2023-12-20T06:21:04;2.03;;;1.75;;
54787;SDS011;59598;48.112;16.280;2023-12-20T06:26:12;2.60;;;1.70;;
54787;SDS011;59598;48.112;16.280;2023-12-20T06:28:46;2.63;;;2.08;;
54787;SDS011;59598;48.112;16.280;2023-12-20T06:31:17;2.20;;;1.63;;
54787;SDS011;59598;48.112;16.280;2023-12-20T06:33:53;2.95;;;1.58;;
54787;SDS011;59598;48.112;16.280;2023-12-20T06:39:48;2.40;;;1.65;;
54787;SDS011;59598;48.112;16.280;2023-12-20T06:42:19;2.53;;;1.63;;
54787;SDS011;59598;48.112;16.280;2023-12-20T06:44:53;2.65;;;2.17;;
54787;SDS011;59598;48.112;16.280;2023-12-20T06:47:27;1.90;;;1.73;;
54787;SDS011;59598;48.112;16.280;2023-12-20T06:50:01;2.38;;;1.85;;
54787;SDS011;59598;48.112;16.280;2023-12-20T06:52:32;2.20;;;1.83;;
54787;SDS011;59598;48.112;16.280;2023-12-20T06:55:05;2.20;;;1.52;;
54787;SDS011;59598;48.112;16.280;2023-12-20T06:57:36;2.72;;;1.92;;
54787;SDS011;59598;48.112;16.280;2023-12-20T07:00:08;3.10;;;1.98;;
54787;SDS011;59598;48.112;16.280;2023-12-20T07:02:43;2.22;;;1.70;;
54787;SDS011;59598;48.112;16.280;2023-12-20T07:11:53;2.83;;;1.88;;
54787;SDS011;59598;48.112;16.280;2023-12-20T07:14:27;2.33;;;1.90;;
54787;SDS011;59598;48.112;16.280;2023-12-20T07:17:02;3.15;;;1.98;;
54787;SDS011;59598;48.112;16.280;2023-12-20T07:19:34;1.95;;;1.70;;
54787;SDS011;59598;48.112;16.280;2023-12-20T07:22:08;4.82;;;2.25;;
54787;SDS011;59598;48.112;16.280;2023-12-20T07:27:12;2.58;;;1.90;;
54787;SDS011;59598;48.112;16.280;2023-12-20T07:29:46;2.63;;;1.90;;
54787;SDS011;59598;48.112;16.280;2023-12-20T07:32:20;1.95;;;1.73;;
54787;SDS011;59598;48.112;16.280;2023-12-20T07:34:56;4.38;;;2.05;;
54787;SDS011;59598;48.112;16.280;2023-12-20T07:37:27;2.75;;;1.73;;
54787;SDS011;59598;48.112;16.280;2023-12-20T07:40:01;3.60;;;1.93;;
54787;SDS011;59598;48.112;16.280;2023-12-20T07:42:34;2.60;;;1.58;;
54787;SDS011;59598;48.112;16.280;2023-12-20T07:45:07;3.72;;;1.77;;
54787;SDS011;59598;48.112;16.280;2023-12-20T07:47:39;2.13;;;1.80;;
54787;SDS011;59598;48.112;16.280;2023-12-20T07:50:16;3.85;;;1.73;;
54787;SDS011;59598;48.112;16.280;2023-12-20T07:52:47;5.70;;;1.80;;
54787;SDS011;59598;48.112;16.280;2023-12-20T07:55:18;2.22;;;1.88;;
54787;SDS011;59598;48.112;16.280;2023-12-20T07:57:50;3.53;;;2.08;;
54787;SDS011;59598;48.112;16.280;2023-12-20T08:00:24;2.58;;;1.92;;
54787;SDS011;59598;48.112;16.280;2023-12-20T08:02:55;3.00;;;2.30;;
54787;SDS011;59598;48.112;16.280;2023-12-20T08:05:26;3.17;;;2.15;;
54787;SDS011;59598;48.112;16.280;2023-12-20T08:07:57;2.53;;;2.33;;
54787;SDS011;59598;48.112;16.280;2023-12-20T08:10:29;3.92;;;2.55;;
54787;SDS011;59598;48.112;16.280;2023-12-20T08:13:01;2.85;;;1.90;;
54787;SDS011;59598;48.112;16.280;2023-12-20T08:15:34;2.40;;;2.20;;
54787;SDS011;59598;48.112;16.280;2023-12-20T08:18:05;2.22;;;2.00;;
54787;SDS011;59598;48.112;16.280;2023-12-20T08:20:39;2.67;;;1.75;;
54787;SDS011;59598;48.112;16.280;2023-12-20T08:23:16;2.20;;;1.70;;
54787;SDS011;59598;48.112;16.280;2023-12-20T08:25:48;3.10;;;2.67;;
54787;SDS011;59598;48.112;16.280;2023-12-20T08:28:20;2.92;;;2.35;;
54787;SDS011;59598;48.112;16.280;2023-12-20T08:30:51;2.45;;;1.85;;
54787;SDS011;59598;48.112;16.280;2023-12-20T08:33:27;2.13;;;1.80;;
54787;SDS011;59598;48.112;16.280;2023-12-20T08:35:58;3.45;;;1.98;;
54787;SDS011;59598;48.112;16.280;2023-12-20T08:38:30;2.50;;;1.55;;
54787;SDS011;59598;48.112;16.280;2023-12-20T08:41:04;2.67;;;1.77;;
54787;SDS011;59598;48.112;16.280;2023-12-20T08:43:36;1.73;;;1.58;;
54787;SDS011;59598;48.112;16.280;2023-12-20T08:46:10;3.00;;;2.00;;
54787;SDS011;59598;48.112;16.280;2023-12-20T08:48:42;2.30;;;1.80;;
54787;SDS011;59598;48.112;16.280;2023-12-20T08:51:16;2.23;;;1.40;;
54787;SDS011;59598;48.112;16.280;2023-12-20T08:53:47;2.58;;;1.77;;
54787;SDS011;59598;48.112;16.280;2023-12-20T08:56:19;2.80;;;2.05;;
54787;SDS011;59598;48.112;16.280;2023-12-20T08:58:52;2.22;;;1.70;;
54787;SDS011;59598;48.112;16.280;2023-12-20T09:01:25;2.72;;;1.80;;
54787;SDS011;59598;48.112;16.280;2023-12-20T09:04:02;2.38;;;1.55;;
54787;SDS011;59598;48.112;16.280;2023-12-20T09:06:33;2.33;;;2.13;;
54787;SDS011;59598;48.112;16.280;2023-12-20T09:09:05;3.30;;;1.75;;
54787;SDS011;59598;48.112;16.280;2023-12-20T09:11:36;2.40;;;2.20;;
54787;SDS011;59598;48.112;16.280;2023-12-20T09:14:10;2.30;;;1.38;;
54787;SDS011;59598;48.112;16.280;2023-12-20T09:16:41;1.90;;;1.50;;
54787;SDS011;59598;48.112;16.280;2023-12-20T09:19:15;1.42;;;1.15;;
54787;SDS011;59598;48.112;16.280;2023-12-20T09:21:46;2.17;;;1.50;;
54787;SDS011;59598;48.112;16.280;2023-12-20T09:24:18;4.00;;;1.63;;
54787;SDS011;59598;48.112;16.280;2023-12-20T09:26:55;3.08;;;1.58;;
54787;SDS011;59598;48.112;16.280;2023-12-20T09:29:26;1.73;;;1.40;;
54787;SDS011;59598;48.112;16.280;2023-12-20T09:31:57;1.52;;;1.10;;
54787;SDS011;59598;48.112;16.280;2023-12-20T09:34:28;4.60;;;1.80;;
54787;SDS011;59598;48.112;16.280;2023-12-20T09:37:03;1.60;;;1.30;;
54787;SDS011;59598;48.112;16.280;2023-12-20T09:39:34;1.20;;;1.10;;
54787;SDS011;59598;48.112;16.280;2023-12-20T09:42:08;1.42;;;1.20;;
54787;SDS011;59598;48.112;16.280;2023-12-20T09:44:45;1.30;;;1.10;;
54787;SDS011;59598;48.112;16.280;2023-12-20T09:47:22;2.28;;;1.63;;
54787;SDS011;59598;48.112;16.280;2023-12-20T09:49:54;1.40;;;1.30;;
54787;SDS011;59598;48.112;16.280;2023-12-20T09:52:28;1.67;;;1.23;;
54787;SDS011;59598;48.112;16.280;2023-12-20T09:55:01;1.98;;;1.30;;
54787;SDS011;59598;48.112;16.280;2023-12-20T09:57:36;3.30;;;2.20;;
54787;SDS011;59598;48.112;16.280;2023-12-20T10:00:08;3.88;;;1.70;;
54787;SDS011;59598;48.112;16.280;2023-12-20T10:02:42;1.60;;;1.50;;
54787;SDS011;59598;48.112;16.280;2023-12-20T10:05:20;3.10;;;1.50;;
54787;SDS011;59598;48.112;16.280;2023-12-20T10:08:00;2.42;;;1.85;;
54787;SDS011;59598;48.112;16.280;2023-12-20T10:15:46;1.90;;;1.45;;
54787;SDS011;59598;48.112;16.280;2023-12-20T10:18:17;1.20;;;1.10;;
54787;SDS011;59598;48.112;16.280;2023-12-20T10:20:50;2.50;;;1.42;;
54787;SDS011;59598;48.112;16.280;2023-12-20T10:23:22;1.88;;;1.40;;
54787;SDS011;59598;48.112;16.280;2023-12-20T10:25:59;1.10;;;1.00;;
54787;SDS011;59598;48.112;16.280;2023-12-20T10:28:32;1.35;;;1.00;;
54787;SDS011;59598;48.112;16.280;2023-12-20T10:33:39;1.95;;;1.20;;
54787;SDS011;59598;48.112;16.280;2023-12-20T10:36:14;0.80;;;0.80;;
54787;SDS011;59598;48.112;16.280;2023-12-20T10:38:48;1.00;;;1.00;;
54787;SDS011;59598;48.112;16.280;2023-12-20T10:41:26;0.80;;;0.80;;
54787;SDS011;59598;48.112;16.280;2023-12-20T10:44:00;2.30;;;0.88;;
54787;SDS011;59598;48.112;16.280;2023-12-20T10:46:40;0.90;;;0.90;;
54787;SDS011;59598;48.112;16.280;2023-12-20T10:49:18;0.82;;;0.82;;
54787;SDS011;59598;48.112;16.280;2023-12-20T10:51:50;1.23;;;0.98;;
54787;SDS011;59598;48.112;16.280;2023-12-20T10:54:27;0.80;;;0.80;;
54787;SDS011;59598;48.112;16.280;2023-12-20T10:56:58;0.80;;;0.80;;
54787;SDS011;59598;48.112;16.280;2023-12-20T10:59:30;1.30;;;1.20;;
54787;SDS011;59598;48.112;16.280;2023-12-20T11:02:05;0.82;;;0.82;;
54787;SDS011;59598;48.112;16.280;2023-12-20T11:04:47;1.00;;;0.80;;
54787;SDS011;59598;48.112;16.280;2023-12-20T11:07:33;0.60;;;0.60;;
54787;SDS011;59598;48.112;16.280;2023-12-20T11:10:40;1.00;;;0.90;;
54787;SDS011;59598;48.112;16.280;2023-12-20T11:13:48;0.80;;;0.80;;
54787;SDS011;59598;48.112;16.280;2023-12-20T11:16:36;0.70;;;0.70;;
54787;SDS011;59598;48.112;16.280;2023-12-20T11:19:08;0.90;;;0.90;;
54787;SDS011;59598;48.112;16.280;2023-12-20T11:21:46;1.00;;;0.90;;
54787;SDS011;59598;48.112;16.280;2023-12-20T11:24:26;0.82;;;0.80;;
54787;SDS011;59598;48.112;16.280;2023-12-20T11:26:57;2.95;;;1.20;;
54787;SDS011;59598;48.112;16.280;2023-12-20T11:29:36;0.77;;;0.77;;
54787;SDS011;59598;48.112;16.280;2023-12-20T11:32:27;1.00;;;0.90;;
54787;SDS011;59598;48.112;16.280;2023-12-20T11:37:40;1.10;;;1.00;;
54787;SDS011;59598;48.112;16.280;2023-12-20T11:40:15;1.30;;;1.20;;
54787;SDS011;59598;48.112;16.280;2023-12-20T11:42:49;1.02;;;0.90;;
54787;SDS011;59598;48.112;16.280;2023-12-20T11:45:22;0.85;;;0.80;;
54787;SDS011;59598;48.112;16.280;2023-12-20T11:50:30;0.80;;;0.80;;
54787;SDS011;59598;48.112;16.280;2023-12-20T11:53:01;0.95;;;0.80;;
54787;SDS011;59598;48.112;16.280;2023-12-20T11:55:35;0.98;;;0.88;;
54787;SDS011;59598;48.112;16.280;2023-12-20T11:58:10;0.90;;;0.77;;
54787;SDS011;59598;48.112;16.280;2023-12-20T12:00:42;0.93;;;0.93;;
54787;SDS011;59598;48.112;16.280;2023-12-20T12:03:14;0.65;;;0.65;;
54787;SDS011;59598;48.112;16.280;2023-12-20T12:05:49;0.70;;;0.70;;
54787;SDS011;59598;48.112;16.280;2023-12-20T12:08:22;0.75;;;0.75;;
54787;SDS011;59598;48.112;16.280;2023-12-20T12:10:54;1.13;;;1.02;;
54787;SDS011;59598;48.112;16.280;2023-12-20T12:13:25;0.82;;;0.80;;
54787;SDS011;59598;48.112;16.280;2023-12-20T12:15:58;0.70;;;0.70;;
54787;SDS011;59598;48.112;16.280;2023-12-20T12:18:30;0.75;;;0.75;;
54787;SDS011;59598;48.112;16.280;2023-12-20T12:21:01;1.25;;;1.15;;
54787;SDS011;59598;48.112;16.280;2023-12-20T12:23:38;1.13;;;1.02;;
54787;SDS011;59598;48.112;16.280;2023-12-20T12:26:09;0.95;;;0.95;;
54787;SDS011;59598;48.112;16.280;2023-12-20T12:28:41;0.75;;;0.75;;
54787;SDS011;59598;48.112;16.280;2023-12-20T12:31:15;0.70;;;0.70;;
54787;SDS011;59598;48.112;16.280;2023-12-20T12:33:48;1.10;;;0.90;;
54787;SDS011;59598;48.112;16.280;2023-12-20T12:36:19;0.75;;;0.75;;
54787;SDS011;59598;48.112;16.280;2023-12-20T12:38:57;2.55;;;0.70;;
54787;SDS011;59598;48.112;16.280;2023-12-20T12:41:29;0.68;;;0.68;;
54787;SDS011;59598;48.112;16.280;2023-12-20T12:44:02;0.95;;;0.95;;
54787;SDS011;59598;48.112;16.280;2023-12-20T12:46:39;0.88;;;0.88;;
54787;SDS011;59598;48.112;16.280;2023-12-20T12:49:13;2.72;;;0.80;;
54787;SDS011;59598;48.112;16.280;2023-12-20T12:51:49;1.40;;;0.77;;
54787;SDS011;59598;48.112;16.280;2023-12-20T12:54:20;1.00;;;1.00;;
54787;SDS011;59598;48.112;16.280;2023-12-20T12:56:51;0.70;;;0.70;;
54787;SDS011;59598;48.112;16.280;2023-12-20T12:59:23;0.80;;;0.80;;
54787;SDS011;59598;48.112;16.280;2023-12-20T13:01:57;0.75;;;0.75;;
54787;SDS011;59598;48.112;16.280;2023-12-20T13:04:29;0.98;;;0.95;;
54787;SDS011;59598;48.112;16.280;2023-12-20T13:07:00;2.40;;;0.90;;
54787;SDS011;59598;48.112;16.280;2023-12-20T13:09:31;1.35;;;1.05;;
54787;SDS011;59598;48.112;16.280;2023-12-20T13:12:06;1.55;;;1.45;;
54787;SDS011;59598;48.112;16.280;2023-12-20T13:14:38;0.80;;;0.80;;
54787;SDS011;59598;48.112;16.280;2023-12-20T13:17:09;2.08;;;0.90;;
54787;SDS011;59598;48.112;16.280;2023-12-20T13:19:41;1.13;;;1.02;;
54787;SDS011;59598;48.112;16.280;2023-12-20T13:22:17;1.10;;;1.00;;
54787;SDS011;59598;48.112;16.280;2023-12-20T13:24:51;1.00;;;1.00;;
54787;SDS011;59598;48.112;16.280;2023-12-20T13:27:24;4.18;;;1.13;;
54787;SDS011;59598;48.112;16.280;2023-12-20T13:29:58;0.93;;;0.93;;
54787;SDS011;59598;48.112;16.280;2023-12-20T13:32:29;2.15;;;1.08;;
54787;SDS011;59598;48.112;16.280;2023-12-20T13:35:01;0.88;;;0.88;;
54787;SDS011;59598;48.112;16.280;2023-12-20T13:37:34;1.20;;;1.10;;
54787;SDS011;59598;48.112;16.280;2023-12-20T13:40:06;1.30;;;1.17;;
54787;SDS011;59598;48.112;16.280;2023-12-20T13:42:40;2.35;;;1.13;;
54787;SDS011;59598;48.112;16.280;2023-12-20T13:45:15;1.02;;;1.02;;
54787;SDS011;59598;48.112;16.280;2023-12-20T13:47:47;1.20;;;1.10;;
54787;SDS011;59598;48.112;16.280;2023-12-20T13:50:18;1.52;;;1.08;;
54787;SDS011;59598;48.112;16.280;2023-12-20T13:52:52;0.88;;;0.88;;
54787;SDS011;59598;48.112;16.280;2023-12-20T13:55:25;0.93;;;0.90;;
54787;SDS011;59598;48.112;16.280;2023-12-20T13:57:58;1.10;;;1.10;;
54787;SDS011;59598;48.112;16.280;2023-12-20T14:00:31;0.80;;;0.80;;
54787;SDS011;59598;48.112;16.280;2023-12-20T14:03:05;1.17;;;1.07;;
54787;SDS011;59598;48.112;16.280;2023-12-20T14:05:37;1.40;;;0.98;;
54787;SDS011;59598;48.112;16.280;2023-12-20T14:10:58;1.52;;;1.15;;
54787;SDS011;59598;48.112;16.280;2023-12-20T14:13:31;1.05;;;1.00;;
54787;SDS011;59598;48.112;16.280;2023-12-20T14:16:05;1.25;;;0.98;;
54787;SDS011;59598;48.112;16.280;2023-12-20T14:18:38;1.10;;;1.10;;
54787;SDS011;59598;48.112;16.280;2023-12-20T14:21:12;1.38;;;1.27;;
54787;SDS011;59598;48.112;16.280;2023-12-20T14:23:43;1.20;;;1.10;;
54787;SDS011;59598;48.112;16.280;2023-12-20T14:28:52;1.33;;;1.25;;
54787;SDS011;59598;48.112;16.280;2023-12-20T14:31:25;1.58;;;1.20;;
54787;SDS011;59598;48.112;16.280;2023-12-20T14:34:01;1.10;;;1.00;;
54787;SDS011;59598;48.112;16.280;2023-12-20T14:36:35;0.93;;;0.93;;
54787;SDS011;59598;48.112;16.280;2023-12-20T14:39:09;1.00;;;0.98;;
54787;SDS011;59598;48.112;16.280;2023-12-20T14:41:43;1.20;;;1.20;;
54787;SDS011;59598;48.112;16.280;2023-12-20T14:44:15;1.45;;;1.05;;
54787;SDS011;59598;48.112;16.280;2023-12-20T14:46:47;1.00;;;1.00;;
54787;SDS011;59598;48.112;16.280;2023-12-20T14:49:18;1.05;;;0.95;;
54787;SDS011;59598;48.112;16.280;2023-12-20T14:51:50;0.93;;;0.93;;
54787;SDS011;59598;48.112;16.280;2023-12-20T14:54:23;1.30;;;1.20;;
54787;SDS011;59598;48.112;16.280;2023-12-20T14:56:54;1.60;;;1.40;;
54787;SDS011;59598;48.112;16.280;2023-12-20T14:59:26;1.20;;;1.10;;
54787;SDS011;59598;48.112;16.280;2023-12-20T15:02:00;0.80;;;0.80;;
54787;SDS011;59598;48.112;16.280;2023-12-20T15:04:35;1.10;;;1.10;;
54787;SDS011;59598;48.112;16.280;2023-12-20T15:07:06;2.78;;;0.90;;
54787;SDS011;59598;48.112;16.280;2023-12-20T15:09:42;1.20;;;1.10;;
54787;SDS011;59598;48.112;16.280;2023-12-20T15:12:16;1.20;;;1.10;;
54787;SDS011;59598;48.112;16.280;2023-12-20T15:14:48;1.13;;;1.10;;
54787;SDS011;59598;48.112;16.280;2023-12-20T15:17:19;1.27;;;1.17;;
54787;SDS011;59598;48.112;16.280;2023-12-20T15:19:51;1.55;;;1.08;;
54787;SDS011;59598;48.112;16.280;2023-12-20T15:22:25;1.13;;;1.00;;
54787;SDS011;59598;48.112;16.280;2023-12-20T15:24:57;1.17;;;1.00;;
54787;SDS011;59598;48.112;16.280;2023-12-20T15:27:29;1.45;;;1.35;;
54787;SDS011;59598;48.112;16.280;2023-12-20T15:30:00;1.17;;;1.08;;
54787;SDS011;59598;48.112;16.280;2023-12-20T15:32:31;2.53;;;1.67;;
54787;SDS011;59598;48.112;16.280;2023-12-20T15:35:03;1.70;;;1.60;;
54787;SDS011;59598;48.112;16.280;2023-12-20T15:37:35;2.72;;;1.60;;
54787;SDS011;59598;48.112;16.280;2023-12-20T15:40:09;1.65;;;1.55;;
54787;SDS011;59598;48.112;16.280;2023-12-20T15:42:40;1.50;;;1.40;;